Time,TemperatureF,DewpointF,PressureIn,WindDirection,WindDirectionDegrees,WindSpeedMPH,WindSpeedGustMPH,Humidity,HourlyPrecipIn,Conditions,Clouds,dailyrainin,SoftwareType,DateUTC
2013-04-06 00:01:00,71.0,42.0,29.87,West,270,3.0,8.0,35,0.00,,,0.00,,2013-04-06 07:01:00,
2013-04-06 00:11:00,71.0,42.0,29.87,West,270,3.0,8.0,35,0.00,,,0.00,,2013-04-06 07:11:00,
2013-04-06 00:21:00,71.0,43.0,29.88,WNW,293,2.0,3.0,36,0.00,,,0.00,,2013-04-06 07:21:00,
2013-04-06 00:32:00,70.0,42.0,29.88,WNW,293,0.0,1.0,36,0.00,,,0.00,,2013-04-06 07:32:00,
2013-04-06 00:42:00,70.0,42.0,29.88,WNW,293,0.0,1.0,36,0.00,,,0.00,,2013-04-06 07:42:00,
2013-04-06 00:52:00,70.0,42.0,29.88,West,270,1.0,3.0,36,0.00,,,0.00,,2013-04-06 07:52:00,
2013-04-06 01:01:00,69.0,42.0,29.87,West,270,0.0,1.0,37,0.00,,,0.00,,2013-04-06 08:01:00,
2013-04-06 01:11:00,69.0,42.0,29.87,West,270,0.0,1.0,37,0.00,,,0.00,,2013-04-06 08:11:00,
2013-04-06 01:21:00,69.0,42.0,29.88,West,270,1.0,3.0,37,0.00,,,0.00,,2013-04-06 08:21:00,
2013-04-06 01:32:00,69.0,42.0,29.87,West,270,3.0,7.0,38,0.00,,,0.00,,2013-04-06 08:32:00,
2013-04-06 01:42:00,69.0,42.0,29.87,West,270,3.0,7.0,38,0.00,,,0.00,,2013-04-06 08:42:00,
2013-04-06 01:51:00,69.0,42.0,29.87,West,270,2.0,5.0,38,0.00,,,0.00,,2013-04-06 08:51:00,
2013-04-06 02:01:00,69.0,43.0,29.86,West,270,1.0,2.0,39,0.00,,,0.00,,2013-04-06 09:01:00,
2013-04-06 02:11:00,69.0,43.0,29.86,West,270,1.0,2.0,39,0.00,,,0.00,,2013-04-06 09:11:00,
2013-04-06 02:21:00,68.0,41.0,29.86,West,270,2.0,5.0,38,0.00,,,0.00,,2013-04-06 09:21:00,
2013-04-06 02:32:00,68.0,41.0,29.86,WNW,293,5.0,7.0,38,0.00,,,0.00,,2013-04-06 09:32:00,
2013-04-06 02:42:00,68.0,41.0,29.86,WNW,293,5.0,7.0,38,0.00,,,0.00,,2013-04-06 09:42:00,
2013-04-06 02:52:00,68.0,41.0,29.86,WNW,293,1.0,2.0,38,0.00,,,0.00,,2013-04-06 09:52:00,
2013-04-06 03:02:00,68.0,42.0,29.85,West,270,2.0,3.0,39,0.00,,,0.00,,2013-04-06 10:02:00,
2013-04-06 03:12:00,68.0,42.0,29.85,West,270,2.0,3.0,39,0.00,,,0.00,,2013-04-06 10:12:00,
2013-04-06 03:22:00,68.0,43.0,29.85,West,270,2.0,3.0,40,0.00,,,0.00,,2013-04-06 10:22:00,
2013-04-06 03:31:00,67.0,42.0,29.85,West,270,2.0,3.0,40,0.00,,,0.00,,2013-04-06 10:31:00,
2013-04-06 03:42:00,67.0,42.0,29.85,West,270,2.0,3.0,40,0.00,,,0.00,,2013-04-06 10:42:00,
2013-04-06 03:52:00,67.0,43.0,29.85,West,270,0.0,1.0,42,0.00,,,0.00,,2013-04-06 10:52:00,
2013-04-06 04:02:00,66.0,43.0,29.85,West,270,1.0,2.0,43,0.00,,,0.00,,2013-04-06 11:02:00,
2013-04-06 04:11:00,66.0,43.0,29.85,West,270,1.0,2.0,43,0.00,,,0.00,,2013-04-06 11:11:00,
2013-04-06 04:32:00,65.0,42.0,29.86,West,270,0.0,0.0,43,0.00,,,0.00,,2013-04-06 11:32:00,
2013-04-06 04:42:00,65.0,42.0,29.86,West,270,0.0,0.0,43,0.00,,,0.00,,2013-04-06 11:42:00,
2013-04-06 04:52:00,65.0,43.0,29.86,West,270,3.0,5.0,45,0.00,,,0.00,,2013-04-06 11:52:00,
2013-04-06 05:01:00,66.0,44.0,29.86,West,270,1.0,2.0,45,0.00,,,0.00,,2013-04-06 12:01:00,
2013-04-06 05:11:00,66.0,44.0,29.86,West,270,1.0,2.0,45,0.00,,,0.00,,2013-04-06 12:11:00,
2013-04-06 05:21:00,66.0,43.0,29.86,West,270,1.0,2.0,44,0.00,,,0.00,,2013-04-06 12:21:00,
2013-04-06 05:32:00,64.0,43.0,29.87,West,270,1.0,1.0,47,0.00,,,0.00,,2013-04-06 12:32:00,
2013-04-06 05:42:00,64.0,43.0,29.87,West,270,1.0,1.0,47,0.00,,,0.00,,2013-04-06 12:42:00,
2013-04-06 05:52:00,64.0,44.0,29.86,West,270,0.0,1.0,48,0.00,,,0.00,,2013-04-06 12:52:00,
2013-04-06 06:02:00,63.0,44.0,29.87,West,270,2.0,3.0,50,0.00,,,0.00,,2013-04-06 13:02:00,
2013-04-06 06:11:00,63.0,44.0,29.87,West,270,2.0,3.0,50,0.00,,,0.00,,2013-04-06 13:11:00,
2013-04-06 06:32:00,64.0,45.0,29.88,West,270,0.0,0.0,50,0.00,,,0.00,,2013-04-06 13:32:00,
2013-04-06 06:42:00,64.0,45.0,29.88,West,270,0.0,0.0,50,0.00,,,0.00,,2013-04-06 13:42:00,
2013-04-06 06:52:00,64.0,45.0,29.88,West,270,0.0,0.0,50,0.00,,,0.00,,2013-04-06 13:52:00,
2013-04-06 07:02:00,64.0,45.0,29.88,West,270,0.0,0.0,51,0.00,,,0.00,,2013-04-06 14:02:00,
2013-04-06 07:11:00,65.0,47.0,29.88,West,270,0.0,0.0,52,0.00,,,0.00,,2013-04-06 14:11:00,
2013-04-06 07:21:00,65.0,47.0,29.88,West,270,0.0,0.0,52,0.00,,,0.00,,2013-04-06 14:21:00,
2013-04-06 07:31:00,65.0,47.0,29.89,West,270,0.0,1.0,53,0.00,,,0.00,,2013-04-06 14:31:00,
2013-04-06 07:42:00,65.0,47.0,29.89,West,270,0.0,1.0,53,0.00,,,0.00,,2013-04-06 14:42:00,
2013-04-06 07:52:00,65.0,48.0,29.90,West,270,1.0,2.0,55,0.00,,,0.00,,2013-04-06 14:52:00,
2013-04-06 08:01:00,66.0,46.0,29.91,WNW,293,1.0,3.0,48,0.00,,,0.00,,2013-04-06 15:01:00,
2013-04-06 08:11:00,66.0,46.0,29.91,WNW,293,1.0,3.0,48,0.00,,,0.00,,2013-04-06 15:11:00,
2013-04-06 08:21:00,67.0,47.0,29.91,WNW,293,2.0,3.0,48,0.00,,,0.00,,2013-04-06 15:21:00,
2013-04-06 08:32:00,68.0,48.0,29.91,WNW,293,1.0,2.0,48,0.00,,,0.00,,2013-04-06 15:32:00,
2013-04-06 08:42:00,68.0,48.0,29.91,WNW,293,1.0,2.0,48,0.00,,,0.00,,2013-04-06 15:42:00,
2013-04-06 08:52:00,69.0,49.0,29.92,WNW,293,1.0,2.0,49,0.00,,,0.00,,2013-04-06 15:52:00,
2013-04-06 09:03:00,70.0,49.0,29.92,WNW,293,2.0,3.0,47,0.00,,,0.00,,2013-04-06 16:03:00,
2013-04-06 09:15:00,70.0,49.0,29.92,WNW,293,2.0,3.0,47,0.00,,,0.00,,2013-04-06 16:15:00,
2013-04-06 09:22:00,72.0,51.0,29.92,WNW,293,1.0,2.0,47,0.00,,,0.00,,2013-04-06 16:22:00,
2013-04-06 09:32:00,73.0,50.0,29.91,West,270,0.0,1.0,45,0.00,,,0.00,,2013-04-06 16:32:00,
2013-04-06 09:41:00,73.0,50.0,29.91,West,270,0.0,1.0,45,0.00,,,0.00,,2013-04-06 16:41:00,
2013-04-06 09:52:00,74.0,49.0,29.92,West,270,1.0,2.0,41,0.00,,,0.00,,2013-04-06 16:52:00,
2013-04-06 10:01:00,76.0,48.0,29.92,NW,315,2.0,3.0,37,0.00,,,0.00,,2013-04-06 17:01:00,
2013-04-06 10:12:00,76.0,48.0,29.92,NW,315,2.0,3.0,37,0.00,,,0.00,,2013-04-06 17:12:00,
2013-04-06 10:21:00,77.0,46.0,29.92,NNW,338,2.0,5.0,34,0.00,,,0.00,,2013-04-06 17:21:00,
2013-04-06 10:32:00,78.0,45.0,29.92,WNW,293,1.0,3.0,31,0.00,,,0.00,,2013-04-06 17:32:00,
2013-04-06 10:42:00,78.0,45.0,29.92,WNW,293,1.0,3.0,31,0.00,,,0.00,,2013-04-06 17:42:00,
2013-04-06 10:52:00,79.0,46.0,29.92,WNW,293,5.0,6.0,31,0.00,,,0.00,,2013-04-06 17:52:00,
2013-04-06 11:01:00,80.0,46.0,29.93,WNW,293,2.0,3.0,30,0.00,,,0.00,,2013-04-06 18:01:00,
2013-04-06 11:12:00,80.0,46.0,29.93,WNW,293,2.0,3.0,30,0.00,,,0.00,,2013-04-06 18:12:00,
2013-04-06 11:21:00,80.0,45.0,29.92,West,270,5.0,7.0,29,0.00,,,0.00,,2013-04-06 18:21:00,
2013-04-06 11:31:00,82.0,46.0,29.92,WSW,248,3.0,6.0,28,0.00,,,0.00,,2013-04-06 18:31:00,
2013-04-06 11:42:00,82.0,46.0,29.92,WSW,248,3.0,6.0,28,0.00,,,0.00,,2013-04-06 18:42:00,
2013-04-06 11:51:00,82.0,46.0,29.91,WSW,248,5.0,7.0,28,0.00,,,0.00,,2013-04-06 18:51:00,
2013-04-06 12:02:00,83.0,46.0,29.91,WSW,248,5.0,7.0,27,0.00,,,0.00,,2013-04-06 19:02:00,
2013-04-06 12:11:00,83.0,46.0,29.91,WSW,248,5.0,7.0,27,0.00,,,0.00,,2013-04-06 19:11:00,
2013-04-06 12:22:00,83.0,46.0,29.91,WNW,293,5.0,6.0,27,0.00,,,0.00,,2013-04-06 19:22:00,
2013-04-06 12:32:00,84.0,45.0,29.90,West,270,2.0,3.0,26,0.00,,,0.00,,2013-04-06 19:32:00,
2013-04-06 12:41:00,84.0,45.0,29.90,West,270,2.0,3.0,26,0.00,,,0.00,,2013-04-06 19:41:00,
2013-04-06 12:52:00,84.0,45.0,29.88,West,270,0.0,1.0,26,0.00,,,0.00,,2013-04-06 19:52:00,
2013-04-06 13:02:00,84.0,45.0,29.88,NNW,338,7.0,9.0,26,0.00,,,0.00,,2013-04-06 20:02:00,
2013-04-06 13:12:00,84.0,45.0,29.88,NNW,338,7.0,9.0,26,0.00,,,0.00,,2013-04-06 20:12:00,
2013-04-06 13:21:00,84.0,44.0,29.88,NW,315,1.0,3.0,25,0.00,,,0.00,,2013-04-06 20:21:00,
2013-04-06 13:31:00,85.0,44.0,29.87,WSW,248,3.0,5.0,24,0.00,,,0.00,,2013-04-06 20:31:00,
2013-04-06 13:41:00,85.0,44.0,29.87,WSW,248,3.0,5.0,24,0.00,,,0.00,,2013-04-06 20:41:00,
2013-04-06 13:52:00,86.0,44.0,29.86,West,270,2.0,6.0,23,0.00,,,0.00,,2013-04-06 20:52:00,
2013-04-06 14:02:00,87.0,44.0,29.85,West,270,0.0,1.0,22,0.00,,,0.00,,2013-04-06 21:02:00,
2013-04-06 14:12:00,87.0,44.0,29.85,WSW,248,2.0,5.0,22,0.00,,,0.00,,2013-04-06 21:12:00,
2013-04-06 14:21:00,87.0,44.0,29.85,WSW,248,2.0,5.0,22,0.00,,,0.00,,2013-04-06 21:21:00,
2013-04-06 14:32:00,87.0,46.0,29.84,West,270,5.0,7.0,24,0.00,,,0.00,,2013-04-06 21:32:00,
2013-04-06 14:52:00,89.0,46.0,29.83,WSW,248,6.0,9.0,23,0.00,,,0.00,,2013-04-06 21:52:00,
2013-04-06 15:02:00,89.0,46.0,29.83,WSW,248,3.0,7.0,23,0.00,,,0.00,,2013-04-06 22:02:00,
2013-04-06 15:22:00,88.0,46.0,29.82,South,180,2.0,5.0,23,0.00,,,0.00,,2013-04-06 22:22:00,
2013-04-06 15:33:00,88.0,44.0,29.81,SW,225,2.0,3.0,22,0.00,,,0.00,,2013-04-06 22:33:00,
2013-04-06 15:42:00,88.0,44.0,29.81,SW,225,2.0,3.0,22,0.00,,,0.00,,2013-04-06 22:42:00,
2013-04-06 15:52:00,89.0,45.0,29.80,SSW,203,6.0,10.0,22,0.00,,,0.00,,2013-04-06 22:52:00,
2013-04-06 16:02:00,89.0,45.0,29.80,West,270,2.0,5.0,22,0.00,,,0.00,,2013-04-06 23:02:00,
2013-04-06 16:12:00,89.0,45.0,29.80,West,270,2.0,5.0,22,0.00,,,0.00,,2013-04-06 23:12:00,
2013-04-06 16:22:00,89.0,44.0,29.79,WSW,248,5.0,8.0,21,0.00,,,0.00,,2013-04-06 23:22:00,
2013-04-06 16:32:00,88.0,47.0,29.78,WSW,248,5.0,8.0,24,0.00,,,0.00,,2013-04-06 23:32:00,
2013-04-06 16:52:00,88.0,46.0,29.77,SSW,203,3.0,6.0,23,0.00,,,0.00,,2013-04-06 23:52:00,
2013-04-06 17:01:00,88.0,47.0,29.77,South,180,5.0,7.0,24,0.00,,,0.00,,2013-04-07 00:01:00,
2013-04-06 17:21:00,87.0,46.0,29.77,SW,225,5.0,7.0,24,0.00,,,0.00,,2013-04-07 00:21:00,
2013-04-06 17:32:00,87.0,47.0,29.77,South,180,6.0,10.0,25,0.00,,,0.00,,2013-04-07 00:32:00,
2013-04-06 17:52:00,86.0,47.0,29.76,South,180,5.0,8.0,26,0.00,,,0.00,,2013-04-07 00:52:00,
2013-04-06 18:01:00,86.0,48.0,29.76,SW,225,6.0,10.0,27,0.00,,,0.00,,2013-04-07 01:01:00,
2013-04-06 18:21:00,85.0,47.0,29.76,SSW,203,3.0,7.0,27,0.00,,,0.00,,2013-04-07 01:21:00,
2013-04-06 18:31:00,85.0,47.0,29.76,SSW,203,2.0,3.0,27,0.00,,,0.00,,2013-04-07 01:31:00,
2013-04-06 18:42:00,85.0,47.0,29.76,SSW,203,2.0,3.0,27,0.00,,,0.00,,2013-04-07 01:42:00,
2013-04-06 18:52:00,84.0,46.0,29.76,SSW,203,3.0,6.0,27,0.00,,,0.00,,2013-04-07 01:52:00,
2013-04-06 19:02:00,83.0,46.0,29.77,SW,225,2.0,5.0,27,0.00,,,0.00,,2013-04-07 02:02:00,
2013-04-06 19:11:00,83.0,46.0,29.77,SW,225,2.0,5.0,27,0.00,,,0.00,,2013-04-07 02:11:00,
2013-04-06 19:22:00,82.0,45.0,29.77,SW,225,2.0,3.0,27,0.00,,,0.00,,2013-04-07 02:22:00,
2013-04-06 19:31:00,82.0,46.0,29.77,SSW,203,2.0,3.0,28,0.00,,,0.00,,2013-04-07 02:31:00,
2013-04-06 19:42:00,82.0,46.0,29.77,SSW,203,2.0,3.0,28,0.00,,,0.00,,2013-04-07 02:42:00,
2013-04-06 19:51:00,81.0,45.0,29.77,SSW,203,2.0,3.0,28,0.00,,,0.00,,2013-04-07 02:51:00,
2013-04-06 20:01:00,80.0,44.0,29.78,SSW,203,1.0,2.0,28,0.00,,,0.00,,2013-04-07 03:01:00,
2013-04-06 20:11:00,80.0,44.0,29.78,SSW,203,1.0,2.0,28,0.00,,,0.00,,2013-04-07 03:11:00,
2013-04-06 20:21:00,79.0,46.0,29.77,SSW,203,0.0,0.0,31,0.00,,,0.00,,2013-04-07 03:21:00,
2013-04-06 20:33:00,78.0,46.0,29.78,SSW,203,0.0,0.0,32,0.00,,,0.00,,2013-04-07 03:33:00,
2013-04-06 20:42:00,78.0,46.0,29.78,SSW,203,0.0,0.0,32,0.00,,,0.00,,2013-04-07 03:42:00,
2013-04-06 20:53:00,77.0,46.0,29.79,SSW,203,0.0,0.0,33,0.00,,,0.00,,2013-04-07 03:53:00,
2013-04-06 21:02:00,76.0,45.0,29.78,SSW,203,0.0,0.0,33,0.00,,,0.00,,2013-04-07 04:02:00,
2013-04-06 21:12:00,76.0,45.0,29.78,SSW,203,0.0,0.0,33,0.00,,,0.00,,2013-04-07 04:12:00,
2013-04-06 21:23:00,76.0,47.0,29.79,SSW,203,0.0,0.0,36,0.00,,,0.00,,2013-04-07 04:23:00,
2013-04-06 21:32:00,75.0,46.0,29.80,SSW,203,0.0,0.0,36,0.00,,,0.00,,2013-04-07 04:32:00,
2013-04-06 21:42:00,75.0,46.0,29.80,SSW,203,0.0,0.0,36,0.00,,,0.00,,2013-04-07 04:42:00,
2013-04-06 21:52:00,74.0,47.0,29.80,SSW,203,0.0,1.0,38,0.00,,,0.00,,2013-04-07 04:52:00,
2013-04-06 22:01:00,74.0,47.0,29.81,SW,225,2.0,3.0,39,0.00,,,0.00,,2013-04-07 05:01:00,
2013-04-06 22:11:00,74.0,47.0,29.81,SW,225,2.0,3.0,39,0.00,,,0.00,,2013-04-07 05:11:00,
2013-04-06 22:22:00,74.0,47.0,29.81,SW,225,1.0,3.0,38,0.00,,,0.00,,2013-04-07 05:22:00,
2013-04-06 22:32:00,74.0,46.0,29.82,SW,225,1.0,3.0,37,0.00,,,0.00,,2013-04-07 05:32:00,
2013-04-06 22:42:00,74.0,46.0,29.82,SW,225,1.0,3.0,37,0.00,,,0.00,,2013-04-07 05:42:00,
2013-04-06 22:52:00,74.0,46.0,29.82,SW,225,2.0,3.0,37,0.00,,,0.00,,2013-04-07 05:52:00,
2013-04-06 23:01:00,74.0,47.0,29.82,SW,225,2.0,3.0,38,0.00,,,0.00,,2013-04-07 06:01:00,
2013-04-06 23:12:00,74.0,47.0,29.82,SW,225,2.0,3.0,38,0.00,,,0.00,,2013-04-07 06:12:00,
2013-04-06 23:21:00,73.0,47.0,29.82,SW,225,2.0,3.0,40,0.00,,,0.00,,2013-04-07 06:21:00,
2013-04-06 23:32:00,72.0,48.0,29.82,SSW,203,3.0,3.0,42,0.00,,,0.00,,2013-04-07 06:32:00,
2013-04-06 23:42:00,72.0,48.0,29.82,SSW,203,3.0,3.0,42,0.00,,,0.00,,2013-04-07 06:42:00,
2013-04-06 23:52:00,71.0,48.0,29.82,South,180,2.0,3.0,44,0.00,,,0.00,,2013-04-07 06:52:00,